Terminal Aerodrome Forecast
Issued by NWS King Salmon, AK

Home | Current Version | Previous Version | Text Only | Print | Product List | Glossary On
Versions: 1 2 3 4 5 6 7 8 9 10 11 12 13 14 15 16 17 18 19
000
FTAK31 PANC 221747
TAFAKN
TAF
PAKN 221747Z 2218/2318 14004KT P6SM SCT120
     FM222100 14009KT P6SM BKN035 OVC070
     FM230100 15014G22KT 1 1/2SM -SN BR SCT008 OVC015
     FM230800 21014KT 5SM -SHSN BKN015 OVC025
     FM231500 18010KT 5SM -SHSN BKN015 OVC025=

USA.gov is the U.S. government's official web portal to all federal, state and local government web resources and services.